createdAt,value
2019-03-10T00:01:36.858Z,63.62
2019-03-10T00:04:08.195Z,64.50
2019-03-10T00:06:39.663Z,63.85
2019-03-10T00:09:11.193Z,63.85
2019-03-10T00:11:42.525Z,63.67
2019-03-10T00:14:14.663Z,63.21
2019-03-10T00:16:46.082Z,63.17
2019-03-10T00:19:17.453Z,63.00
2019-03-10T00:21:48.732Z,64.10
2019-03-10T00:24:20.300Z,63.98
2019-03-10T00:26:51.563Z,63.81
2019-03-10T00:29:22.905Z,62.76
2019-03-10T00:31:54.324Z,63.23
2019-03-10T00:34:25.765Z,63.61
2019-03-10T00:36:58.772Z,63.16
2019-03-10T00:40:12.659Z,62.85
2019-03-10T00:43:25.846Z,62.41
2019-03-10T00:46:40.638Z,62.62
2019-03-10T00:50:02.900Z,61.69
2019-03-10T00:52:41.790Z,61.87
2019-03-10T00:55:13.128Z,60.61
2019-03-10T00:57:44.550Z,59.89
2019-03-10T01:00:17.721Z,60.41
2019-03-10T01:02:49.106Z,60.25
2019-03-10T01:05:20.555Z,60.32
2019-03-10T01:07:51.946Z,59.73
2019-03-10T01:10:23.211Z,59.76
2019-03-10T01:12:57.728Z,59.67
2019-03-10T01:15:29.401Z,60.14
2019-03-10T01:18:01.847Z,60.25
2019-03-10T01:20:33.220Z,60.70
2019-03-10T01:23:04.631Z,61.20
2019-03-10T01:25:36.214Z,60.79
2019-03-10T01:28:07.686Z,60.37
2019-03-10T01:30:46.770Z,60.90
2019-03-10T01:33:45.905Z,61.57
2019-03-10T01:36:15.658Z,61.71
2019-03-10T01:38:47.020Z,61.98
2019-03-10T01:41:18.306Z,61.66
2019-03-10T01:43:49.540Z,62.19
2019-03-10T01:46:20.790Z,61.92
2019-03-10T01:48:52.303Z,62.36
2019-03-10T01:51:23.770Z,63.14
2019-03-10T01:53:55.261Z,63.78
2019-03-10T01:56:26.910Z,63.90
2019-03-10T01:58:58.296Z,64.70
2019-03-10T02:01:29.669Z,64.65
2019-03-10T02:04:00.996Z,64.59
2019-03-10T02:06:32.264Z,64.53
2019-03-10T02:09:05.347Z,65.06
2019-03-10T02:11:36.692Z,65.36
2019-03-10T02:14:08.034Z,64.74
2019-03-10T02:16:39.313Z,65.57
2019-03-10T02:19:10.638Z,66.01
2019-03-10T02:21:42.050Z,65.97
2019-03-10T02:24:23.213Z,66.01
2019-03-10T02:26:46.379Z,66.25
2019-03-10T02:29:17.783Z,66.35
2019-03-10T02:31:49.035Z,66.54
2019-03-10T02:34:21.945Z,66.71
2019-03-10T02:36:53.345Z,66.86
2019-03-10T02:39:24.607Z,67.10
2019-03-10T02:41:55.909Z,68.22
2019-03-10T02:44:27.158Z,68.18
2019-03-10T02:46:58.434Z,68.65
2019-03-10T02:49:29.925Z,68.65
2019-03-10T02:52:01.199Z,68.91
2019-03-10T02:54:32.561Z,68.77
2019-03-10T02:57:03.844Z,68.55
2019-03-10T02:59:35.197Z,68.71
2019-03-10T03:02:06.507Z,68.98
2019-03-10T03:04:37.958Z,68.34
2019-03-10T03:07:09.426Z,67.98
2019-03-10T03:09:40.775Z,67.95
2019-03-10T03:12:12.049Z,67.83
2019-03-10T03:14:43.515Z,68.31
2019-03-10T03:17:14.833Z,68.31
2019-03-10T03:19:46.107Z,68.81
2019-03-10T03:22:17.434Z,68.15
2019-03-10T03:24:49.694Z,68.59
2019-03-10T03:27:20.941Z,68.46
2019-03-10T03:29:52.648Z,69.19
2019-03-10T03:32:24.088Z,68.78
2019-03-10T03:34:55.517Z,69.35
2019-03-10T03:37:26.846Z,69.16
2019-03-10T03:39:59.335Z,69.93
2019-03-10T03:42:30.647Z,70.34
2019-03-10T03:45:02.122Z,69.92
2019-03-10T03:47:33.508Z,70.74
2019-03-10T03:50:05.255Z,71.47
2019-03-10T03:52:38.356Z,72.08
2019-03-10T03:55:09.854Z,72.46
2019-03-10T03:57:41.822Z,72.95
2019-03-10T04:00:13.393Z,73.20
2019-03-10T04:02:44.815Z,73.63
2019-03-10T04:05:16.252Z,73.63
2019-03-10T04:07:47.539Z,74.14
2019-03-10T04:10:18.966Z,74.66
2019-03-10T04:12:50.239Z,75.12
2019-03-10T04:15:21.556Z,75.17
2019-03-10T04:17:52.972Z,75.67
2019-03-10T04:20:25.993Z,75.88
2019-03-10T04:22:57.389Z,75.98
2019-03-10T04:25:28.689Z,76.41
2019-03-10T04:28:00.165Z,76.80
2019-03-10T04:30:31.451Z,77.12
2019-03-10T04:33:02.710Z,77.58
2019-03-10T04:35:34.118Z,77.68
2019-03-10T04:38:05.540Z,78.30
2019-03-10T04:40:36.955Z,78.30
2019-03-10T04:43:08.312Z,78.57
2019-03-10T04:45:39.717Z,78.81
2019-03-10T04:48:11.063Z,78.96
2019-03-10T04:50:42.618Z,79.09
2019-03-10T04:53:13.926Z,79.31
2019-03-10T04:55:50.050Z,79.83
2019-03-10T04:58:21.481Z,80.02
2019-03-10T05:00:54.516Z,79.83
2019-03-10T05:03:25.750Z,79.68
2019-03-10T05:05:57.400Z,79.42
2019-03-10T05:08:30.508Z,79.33
2019-03-10T05:11:01.871Z,79.21
2019-03-10T05:13:33.148Z,79.18
2019-03-10T05:16:04.500Z,79.10
2019-03-10T05:18:35.835Z,79.07
2019-03-10T05:21:07.338Z,79.12
2019-03-10T05:23:40.576Z,79.62
2019-03-10T05:26:12.136Z,79.46
2019-03-10T05:28:45.437Z,79.62
2019-03-10T05:31:17.023Z,79.41
2019-03-10T05:33:48.418Z,78.63
2019-03-10T05:36:19.805Z,78.46
2019-03-10T05:38:51.047Z,78.44
2019-03-10T05:41:22.526Z,78.15
2019-03-10T05:43:55.638Z,77.83
2019-03-10T05:46:26.958Z,77.68
2019-03-10T05:48:58.230Z,77.37
2019-03-10T05:51:29.738Z,77.39
2019-03-10T05:54:01.094Z,76.96
2019-03-10T05:56:32.552Z,77.07
2019-03-10T05:59:04.050Z,76.94
2019-03-10T06:01:35.473Z,76.45
2019-03-10T06:04:06.865Z,76.15
2019-03-10T06:06:38.526Z,76.07
2019-03-10T06:09:09.902Z,75.57
2019-03-10T06:11:42.959Z,76.13
2019-03-10T06:14:14.218Z,77.83
2019-03-10T06:16:45.643Z,77.25
2019-03-10T06:19:16.937Z,77.40
2019-03-10T06:21:48.228Z,77.19
2019-03-10T06:24:19.503Z,78.66
2019-03-10T06:26:50.793Z,81.39
2019-03-10T06:29:22.094Z,81.16
2019-03-10T06:31:53.615Z,80.91
2019-03-10T06:34:26.524Z,81.71
2019-03-10T06:36:58.003Z,80.66
2019-03-10T06:39:29.269Z,79.83
2019-03-10T06:42:00.568Z,78.41
2019-03-10T06:44:31.847Z,78.41
2019-03-10T06:47:03.226Z,77.64
2019-03-10T06:49:34.720Z,76.18
2019-03-10T06:52:06.031Z,75.87
2019-03-10T06:54:37.366Z,76.51
2019-03-10T06:57:08.732Z,75.41
2019-03-10T06:59:40.320Z,74.41
2019-03-10T07:02:11.901Z,75.82
2019-03-10T07:04:43.255Z,76.06
2019-03-10T07:07:14.690Z,75.08
2019-03-10T07:09:46.124Z,74.17
2019-03-10T07:12:17.476Z,74.68
2019-03-10T07:14:48.885Z,75.16
2019-03-10T07:17:20.285Z,74.87
2019-03-10T07:19:51.764Z,73.88
2019-03-10T07:22:23.071Z,74.21
2019-03-10T07:24:54.448Z,73.37
2019-03-10T07:27:29.175Z,73.24
2019-03-10T07:30:04.661Z,73.47
2019-03-10T07:32:44.454Z,73.47
2019-03-10T07:35:33.457Z,73.53
2019-03-10T07:38:12.210Z,73.93
2019-03-10T07:41:02.441Z,73.83
2019-03-10T07:43:52.924Z,74.44
2019-03-10T07:46:39.357Z,74.88
2019-03-10T07:49:32.849Z,74.55
2019-03-10T07:52:20.115Z,73.08
2019-03-10T07:55:08.183Z,74.40
2019-03-10T07:57:57.275Z,73.11
2019-03-10T08:00:46.675Z,74.13
2019-03-10T08:03:39.361Z,75.09
2019-03-10T08:06:32.857Z,76.22
2019-03-10T08:09:21.838Z,77.85
2019-03-10T08:12:15.444Z,78.62
2019-03-10T08:15:01.289Z,80.40
2019-03-10T08:17:42.695Z,82.75
2019-03-10T08:20:32.995Z,85.07
2019-03-10T08:23:29.368Z,86.46
2019-03-10T08:26:12.118Z,87.87
2019-03-10T08:28:54.244Z,87.72
2019-03-10T08:31:50.768Z,88.31
2019-03-10T08:34:41.092Z,90.09
2019-03-10T08:37:22.258Z,90.09
2019-03-10T08:40:00.342Z,91.61
2019-03-10T08:42:46.751Z,92.72
2019-03-10T08:45:37.151Z,93.64
2019-03-10T08:48:36.567Z,94.30
2019-03-10T08:51:21.850Z,94.30
2019-03-10T08:54:04.022Z,94.78
2019-03-10T08:57:00.578Z,95.19
2019-03-10T08:59:38.185Z,95.49
2019-03-10T09:02:30.152Z,94.81
2019-03-10T09:05:12.927Z,95.75
2019-03-10T09:08:14.198Z,96.38
2019-03-10T09:11:00.264Z,97.16
2019-03-10T09:13:56.910Z,97.83
2019-03-10T09:16:50.252Z,98.19
2019-03-10T09:19:40.543Z,99.39
2019-03-10T09:22:25.424Z,100.00
2019-03-10T09:25:10.920Z,100.00
2019-03-10T09:28:00.710Z,100.00
2019-03-10T09:30:51.054Z,100.00
2019-03-10T09:33:46.151Z,100.00
2019-03-10T09:36:39.272Z,100.00
2019-03-10T09:39:28.181Z,100.00
2019-03-10T09:42:19.025Z,100.00
2019-03-10T09:44:59.367Z,100.00
2019-03-10T09:47:46.851Z,100.00
2019-03-10T09:50:39.938Z,100.00
2019-03-10T09:53:45.730Z,100.00
2019-03-10T09:56:27.004Z,100.00
2019-03-10T09:59:15.907Z,100.00
2019-03-10T10:01:53.659Z,100.00
2019-03-10T10:04:34.269Z,100.00
2019-03-10T10:07:12.734Z,100.00
2019-03-10T10:10:15.552Z,100.00
2019-03-10T10:13:08.690Z,100.00
2019-03-10T10:15:54.369Z,100.00
2019-03-10T10:18:50.856Z,100.00
2019-03-10T10:21:36.050Z,100.00
2019-03-10T10:24:16.464Z,100.00
2019-03-10T10:27:33.443Z,100.00
2019-03-10T10:30:31.035Z,100.00
2019-03-10T10:33:24.162Z,100.00
2019-03-10T10:36:26.692Z,100.00
2019-03-10T10:39:34.540Z,100.00
2019-03-10T10:42:43.449Z,100.00
2019-03-10T10:45:37.407Z,100.00
2019-03-10T10:48:33.565Z,100.00
2019-03-10T10:51:18.980Z,100.00
2019-03-10T10:54:27.734Z,100.00
2019-03-10T10:57:28.241Z,100.00
2019-03-10T11:00:05.731Z,100.00
2019-03-10T11:03:08.163Z,100.00
2019-03-10T11:05:51.013Z,100.00
2019-03-10T11:08:30.869Z,100.00
2019-03-10T11:11:33.108Z,100.00
2019-03-10T11:14:26.320Z,100.00
2019-03-10T11:17:15.810Z,100.00
2019-03-10T11:20:15.719Z,100.00
2019-03-10T11:23:11.771Z,100.00
2019-03-10T11:26:03.755Z,100.00
2019-03-10T11:28:52.933Z,100.00
2019-03-10T11:31:37.134Z,100.00
2019-03-10T11:34:27.469Z,100.00
2019-03-10T11:37:19.748Z,100.00
2019-03-10T11:40:16.165Z,100.00
2019-03-10T11:42:55.678Z,100.00
2019-03-10T11:45:37.521Z,100.00
2019-03-10T11:48:34.259Z,100.00
2019-03-10T11:51:23.618Z,100.00
2019-03-10T11:54:04.327Z,100.00
2019-03-10T11:56:57.331Z,100.00
2019-03-10T11:59:33.159Z,100.00
2019-03-10T12:02:16.275Z,100.00
2019-03-10T12:04:56.372Z,100.00
2019-03-10T12:07:52.863Z,100.00
2019-03-10T12:10:24.339Z,100.00
2019-03-10T12:12:55.619Z,100.00
2019-03-10T12:15:26.969Z,100.00
2019-03-10T12:17:58.424Z,100.00
2019-03-10T12:20:29.694Z,100.00
2019-03-10T12:23:01.015Z,100.00
2019-03-10T12:25:32.360Z,100.00
2019-03-10T12:28:03.673Z,100.00
2019-03-10T12:30:34.989Z,100.00
2019-03-10T12:33:06.725Z,100.00
2019-03-10T12:35:38.257Z,100.00
2019-03-10T12:38:09.652Z,100.00
2019-03-10T12:40:41.136Z,100.00
2019-03-10T12:43:12.830Z,100.00
2019-03-10T12:45:44.200Z,100.00
2019-03-10T12:48:15.630Z,100.00
2019-03-10T12:50:47.260Z,100.00
2019-03-10T12:53:18.559Z,100.00
2019-03-10T12:55:49.918Z,100.00
2019-03-10T12:58:21.281Z,100.00
2019-03-10T13:00:52.707Z,100.00
2019-03-10T13:03:24.087Z,100.00
2019-03-10T13:05:55.466Z,100.00
2019-03-10T13:08:27.797Z,100.00
2019-03-10T13:10:59.649Z,100.00
2019-03-10T13:13:31.274Z,100.00
2019-03-10T13:16:02.657Z,100.00
2019-03-10T13:18:34.131Z,100.00
2019-03-10T13:21:05.729Z,100.00
2019-03-10T13:23:37.305Z,100.00
2019-03-10T13:26:08.804Z,100.00
2019-03-10T13:28:40.124Z,100.00
2019-03-10T13:31:11.570Z,100.00
2019-03-10T13:33:43.107Z,100.00
2019-03-10T13:36:14.813Z,100.00
2019-03-10T13:38:46.258Z,100.00
2019-03-10T13:41:17.807Z,100.00
2019-03-10T13:43:49.263Z,100.00
2019-03-10T13:46:20.914Z,100.00
2019-03-10T13:48:52.376Z,100.00
2019-03-10T13:51:23.757Z,100.00
2019-03-10T13:53:55.248Z,100.00
2019-03-10T13:56:26.826Z,100.00
2019-03-10T13:58:58.217Z,100.00
2019-03-10T14:01:29.572Z,100.00
2019-03-10T14:04:00.885Z,100.00
2019-03-10T14:06:32.312Z,100.00
2019-03-10T14:09:04.926Z,100.00
2019-03-10T14:11:36.247Z,100.00
2019-03-10T14:14:07.618Z,100.00
2019-03-10T14:16:39.012Z,100.00
2019-03-10T14:19:10.787Z,100.00
2019-03-10T14:21:42.826Z,100.00
2019-03-10T14:24:14.642Z,100.00
2019-03-10T14:26:46.023Z,100.00
2019-03-10T14:29:17.376Z,100.00
2019-03-10T14:31:50.603Z,100.00
2019-03-10T14:34:22.087Z,100.00
2019-03-10T14:36:53.629Z,100.00
2019-03-10T14:39:25.054Z,100.00
2019-03-10T14:41:56.877Z,100.00
2019-03-10T14:44:28.549Z,100.00
2019-03-10T14:47:00.383Z,100.00
2019-03-10T14:49:31.825Z,100.00
2019-03-10T14:52:03.232Z,100.00
2019-03-10T14:54:34.756Z,100.00
2019-03-10T14:57:06.261Z,100.00
2019-03-10T14:59:37.929Z,100.00
2019-03-10T15:02:09.596Z,100.00
2019-03-10T15:04:41.009Z,96.57
2019-03-10T15:07:12.986Z,94.75
2019-03-10T15:09:44.516Z,95.25
2019-03-10T15:12:16.170Z,94.29
2019-03-10T15:14:49.229Z,93.11
2019-03-10T15:17:20.924Z,94.17
2019-03-10T15:19:52.437Z,93.15
2019-03-10T15:22:23.812Z,92.85
2019-03-10T15:24:56.990Z,89.24
2019-03-10T15:27:28.387Z,89.45
2019-03-10T15:29:59.813Z,88.88
2019-03-10T15:32:31.287Z,88.10
2019-03-10T15:35:03.016Z,88.96
2019-03-10T15:37:34.367Z,88.08
2019-03-10T15:40:05.936Z,85.37
2019-03-10T15:42:37.378Z,83.33
2019-03-10T15:45:09.787Z,83.77
2019-03-10T15:47:41.132Z,82.48
2019-03-10T15:50:15.479Z,80.30
2019-03-10T15:52:47.320Z,80.65
2019-03-10T15:55:18.819Z,81.63
2019-03-10T15:57:50.883Z,80.10
2019-03-10T16:00:22.868Z,80.66
2019-03-10T16:02:54.469Z,78.52
2019-03-10T16:05:25.962Z,80.20
2019-03-10T16:07:57.549Z,79.72
2019-03-10T16:10:29.147Z,79.05
2019-03-10T16:13:00.502Z,79.01
2019-03-10T16:15:32.160Z,78.49
2019-03-10T16:18:03.611Z,79.04
2019-03-10T16:20:35.021Z,78.89
2019-03-10T16:23:06.435Z,77.09
2019-03-10T16:25:37.826Z,77.12
2019-03-10T16:28:27.651Z,76.15
2019-03-10T16:30:59.630Z,75.97
2019-03-10T16:33:31.037Z,74.55
2019-03-10T16:36:02.498Z,74.42
2019-03-10T16:38:34.156Z,73.80
2019-03-10T16:41:05.559Z,73.54
2019-03-10T16:43:37.022Z,73.91
2019-03-10T16:46:08.388Z,73.79
2019-03-10T16:48:39.899Z,73.63
2019-03-10T16:51:11.384Z,73.26
2019-03-10T16:53:43.009Z,72.91
2019-03-10T16:56:14.405Z,72.77
2019-03-10T16:58:46.234Z,70.25
2019-03-10T17:01:17.647Z,69.92
2019-03-10T17:03:48.976Z,70.92
2019-03-10T17:06:21.842Z,76.87
2019-03-10T17:08:53.401Z,84.51
2019-03-10T17:11:25.722Z,88.13
2019-03-10T17:14:04.421Z,88.36
2019-03-10T17:16:35.795Z,88.65
2019-03-10T17:19:09.539Z,90.28
2019-03-10T17:21:42.031Z,91.35
2019-03-10T17:24:15.034Z,91.15
2019-03-10T17:26:46.480Z,90.75
2019-03-10T17:29:17.875Z,91.04
2019-03-10T17:31:49.435Z,92.03
2019-03-10T17:34:20.770Z,90.68
2019-03-10T17:36:52.435Z,90.92
2019-03-10T17:39:23.802Z,90.82
2019-03-10T17:41:55.456Z,88.68
2019-03-10T17:44:27.127Z,85.92
2019-03-10T17:46:58.738Z,83.64
2019-03-10T17:49:30.471Z,82.23
2019-03-10T17:52:02.179Z,81.76
2019-03-10T17:54:33.832Z,80.95
2019-03-10T17:57:05.186Z,81.77
2019-03-10T17:59:37.022Z,79.86
2019-03-10T18:02:09.510Z,79.86
2019-03-10T18:04:41.027Z,77.18
2019-03-10T18:07:12.610Z,76.64
2019-03-10T18:09:44.235Z,76.52
2019-03-10T18:12:16.536Z,76.29
2019-03-10T18:14:48.132Z,74.78
2019-03-10T18:17:19.555Z,75.76
2019-03-10T18:19:50.899Z,74.74
2019-03-10T18:22:23.371Z,74.86
2019-03-10T18:24:54.876Z,75.18
2019-03-10T18:27:26.229Z,75.24
2019-03-10T18:29:57.651Z,76.34
2019-03-10T18:32:29.075Z,76.48
2019-03-10T18:35:02.103Z,76.94
2019-03-10T18:37:34.111Z,76.75
2019-03-10T18:40:06.706Z,76.95
2019-03-10T18:42:38.407Z,77.23
2019-03-10T18:45:11.600Z,78.19
2019-03-10T18:47:43.065Z,78.71
2019-03-10T18:50:15.930Z,78.95
2019-03-10T18:52:50.336Z,78.82
2019-03-10T18:55:22.445Z,77.80
2019-03-10T18:57:54.378Z,78.44
2019-03-10T19:00:25.857Z,76.00
2019-03-10T19:02:57.500Z,72.04
2019-03-10T19:05:29.129Z,69.75
2019-03-10T19:08:02.327Z,68.41
2019-03-10T19:10:33.722Z,66.84
2019-03-10T19:13:05.957Z,67.25
2019-03-10T19:15:38.874Z,66.06
2019-03-10T19:18:10.239Z,65.24
2019-03-10T19:20:42.165Z,66.23
2019-03-10T19:23:13.538Z,64.11
2019-03-10T19:25:45.019Z,64.89
2019-03-10T19:28:16.574Z,65.08
2019-03-10T19:30:48.022Z,63.99
2019-03-10T19:33:19.537Z,63.75
2019-03-10T19:35:50.862Z,62.68
2019-03-10T19:38:22.383Z,63.18
2019-03-10T19:40:53.852Z,61.56
2019-03-10T19:43:25.885Z,62.60
2019-03-10T19:45:57.679Z,61.12
2019-03-10T19:48:29.049Z,60.97
2019-03-10T19:51:02.098Z,60.89
2019-03-10T19:53:33.582Z,60.16
2019-03-10T19:56:05.484Z,60.21
2019-03-10T19:58:38.553Z,59.91
2019-03-10T20:01:10.068Z,60.58
2019-03-10T20:03:41.418Z,60.58
2019-03-10T20:06:12.844Z,60.67
2019-03-10T20:08:51.653Z,60.83
2019-03-10T20:11:25.074Z,60.68
2019-03-10T20:13:56.474Z,60.40
2019-03-10T20:16:27.827Z,59.93
2019-03-10T20:18:59.246Z,60.47
2019-03-10T20:21:30.739Z,60.44
2019-03-10T20:24:02.075Z,60.56
2019-03-10T20:26:33.910Z,60.53
2019-03-10T20:29:05.544Z,60.68
2019-03-10T20:31:37.008Z,61.25
2019-03-10T20:34:08.408Z,60.30
2019-03-10T20:36:39.726Z,59.62
2019-03-10T20:39:11.004Z,60.32
2019-03-10T20:41:42.547Z,60.12
2019-03-10T20:44:14.154Z,60.32
2019-03-10T20:46:45.542Z,60.82
2019-03-10T20:49:16.913Z,59.65
2019-03-10T20:51:48.366Z,60.60
2019-03-10T20:54:20.797Z,60.50
2019-03-10T20:56:53.892Z,60.82
2019-03-10T20:59:25.187Z,60.54
2019-03-10T21:01:56.495Z,62.11
2019-03-10T21:04:28.144Z,62.11
2019-03-10T21:07:00.853Z,60.84
2019-03-10T21:09:32.494Z,62.05
2019-03-10T21:12:03.878Z,62.20
2019-03-10T21:14:36.051Z,60.92
2019-03-10T21:17:07.977Z,59.40
2019-03-10T21:19:39.757Z,58.87
2019-03-10T21:22:11.051Z,58.43
2019-03-10T21:24:42.379Z,58.02
2019-03-10T21:27:13.739Z,58.75
2019-03-10T21:29:45.187Z,59.40
2019-03-10T21:32:16.593Z,58.32
2019-03-10T21:34:47.943Z,59.12
2019-03-10T21:37:19.424Z,58.72
2019-03-10T21:39:50.702Z,59.16
2019-03-10T21:42:23.661Z,59.70
2019-03-10T21:44:54.981Z,60.05
2019-03-10T21:47:26.298Z,61.12
2019-03-10T21:49:59.479Z,61.53
2019-03-10T21:52:30.768Z,62.65
2019-03-10T21:55:02.153Z,61.47
2019-03-10T21:57:35.148Z,61.44
2019-03-10T22:00:07.883Z,59.95
2019-03-10T22:02:39.213Z,59.50
2019-03-10T22:05:12.449Z,59.50
2019-03-10T22:07:43.745Z,58.63
2019-03-10T22:10:26.383Z,57.88
2019-03-10T22:12:48.513Z,57.66
2019-03-10T22:15:19.965Z,57.37
2019-03-10T22:17:51.210Z,57.47
2019-03-10T22:20:22.477Z,56.70
2019-03-10T22:22:53.788Z,57.69
2019-03-10T22:25:25.155Z,58.34
2019-03-10T22:27:56.653Z,59.23
2019-03-10T22:30:28.022Z,59.23
2019-03-10T22:32:59.428Z,59.60
2019-03-10T22:35:30.727Z,59.84
2019-03-10T22:38:02.090Z,60.14
2019-03-10T22:40:33.347Z,61.33
2019-03-10T22:43:04.744Z,61.14
2019-03-10T22:45:36.354Z,61.14
2019-03-10T22:48:07.797Z,60.98
2019-03-10T22:50:39.050Z,63.50
2019-03-10T22:53:10.455Z,69.36
2019-03-10T22:55:41.721Z,70.69
2019-03-10T22:58:14.845Z,74.31
2019-03-10T23:00:50.540Z,77.00
2019-03-10T23:03:23.384Z,75.36
2019-03-10T23:05:54.637Z,76.00
2019-03-10T23:08:27.632Z,75.77
2019-03-10T23:10:59.003Z,75.74
2019-03-10T23:13:30.369Z,73.50
2019-03-10T23:16:01.742Z,74.12
2019-03-10T23:18:33.099Z,69.72
2019-03-10T23:21:07.471Z,68.42
2019-03-10T23:23:39.819Z,69.30
2019-03-10T23:26:11.193Z,66.74
2019-03-10T23:28:42.833Z,64.98
2019-03-10T23:31:14.160Z,65.68
2019-03-10T23:33:45.656Z,68.10
2019-03-10T23:36:16.978Z,65.90
2019-03-10T23:38:48.485Z,68.09
2019-03-10T23:41:19.760Z,69.39
2019-03-10T23:43:51.163Z,69.94
2019-03-10T23:46:22.564Z,70.29
2019-03-10T23:48:53.840Z,71.71
2019-03-10T23:51:25.639Z,72.58
2019-03-10T23:53:57.185Z,73.97
2019-03-10T23:56:30.207Z,74.38
2019-03-10T23:59:01.553Z,75.39
